Time;durP1;ratioP1;P1;durP2;ratioP2;P2;SDS_P1;SDS_P2;PMS_P1;PMS_P2;Temp;Humidity;BMP_temperature;BMP_pressure;BME280_temperature;BME280_humidity;BME280_pressure;Samples;Min_cycle;Max_cycle;Signal;HPM_P1;HPM_P2
2024/01/09 00:00:28;;;;;;;13.33;8.60;;;-2.40;99.90;;;;;;4956301;28;20230;-83
2024/01/09 00:02:53;;;;;;;13.50;8.73;;;-2.00;99.90;;;;;;4959333;28;20204;-83
2024/01/09 00:05:19;;;;;;;11.13;8.60;;;-2.40;99.90;;;;;;4959786;28;20245;-84
2024/01/09 00:07:44;;;;;;;11.47;8.90;;;-2.30;99.90;;;;;;4955530;28;20186;-84
2024/01/09 00:10:10;;;;;;;13.40;9.03;;;-2.10;99.90;;;;;;4954162;28;20551;-83
2024/01/09 00:12:36;;;;;;;13.50;8.00;;;-2.60;99.90;;;;;;4955322;28;20190;-84
2024/01/09 00:15:01;;;;;;;14.50;10.53;;;-2.20;99.90;;;;;;4955897;28;20206;-84
2024/01/09 00:17:27;;;;;;;14.00;9.20;;;-2.30;99.90;;;;;;4938064;29;20581;-84
2024/01/09 00:19:52;;;;;;;13.70;9.43;;;-2.20;99.90;;;;;;4954628;28;20277;-84
2024/01/09 00:22:18;;;;;;;11.43;7.80;;;-2.60;99.90;;;;;;4957994;28;20183;-84
2024/01/09 00:24:43;;;;;;;15.83;8.90;;;-2.50;99.90;;;;;;4946110;28;20217;-84
2024/01/09 00:27:09;;;;;;;14.60;9.57;;;-2.00;99.90;;;;;;4952790;28;21076;-84
2024/01/09 00:29:35;;;;;;;12.10;8.30;;;-3.00;99.90;;;;;;4952607;28;20499;-84
2024/01/09 00:32:01;;;;;;;12.32;9.23;;;-2.00;99.90;;;;;;4954856;28;20194;-84
2024/01/09 00:34:27;;;;;;;12.88;8.77;;;-2.00;99.90;;;;;;4962079;28;20357;-84
2024/01/09 00:36:52;;;;;;;12.40;9.50;;;-2.20;99.90;;;;;;4939860;28;20296;-84
2024/01/09 00:39:18;;;;;;;16.23;10.23;;;-2.40;99.90;;;;;;4955343;28;20193;-84
2024/01/09 00:41:43;;;;;;;13.27;10.07;;;-1.80;99.90;;;;;;4955559;28;20204;-84
2024/01/09 00:44:09;;;;;;;13.83;8.50;;;-2.10;99.90;;;;;;4952180;28;20367;-84
2024/01/09 00:46:35;;;;;;;11.77;8.03;;;-2.20;99.90;;;;;;4953829;28;20474;-84
2024/01/09 00:49:00;;;;;;;14.27;9.60;;;-2.50;99.90;;;;;;4951784;28;20198;-84
2024/01/09 00:51:26;;;;;;;12.83;9.43;;;-1.80;99.90;;;;;;4951941;28;20190;-84
2024/01/09 00:53:54;;;;;;;13.40;8.33;;;-2.20;99.90;;;;;;4955890;28;20190;-84
2024/01/09 00:56:20;;;;;;;15.73;9.95;;;-1.90;99.90;;;;;;4953617;28;20569;-84
2024/01/09 00:58:45;;;;;;;14.00;9.63;;;-2.50;99.70;;;;;;4954201;28;20201;-84
2024/01/09 01:01:10;;;;;;;11.47;8.10;;;-2.20;99.80;;;;;;4969039;28;20169;-84
2024/01/09 01:03:36;;;;;;;12.00;8.43;;;-2.00;99.90;;;;;;4965789;28;20558;-84
2024/01/09 01:06:02;;;;;;;12.17;8.90;;;-2.50;99.90;;;;;;4954422;28;20218;-84
2024/01/09 01:08:28;;;;;;;12.02;8.70;;;-2.20;99.90;;;;;;4950569;28;20182;-84
2024/01/09 01:10:53;;;;;;;13.50;8.93;;;-2.30;99.90;;;;;;4936382;28;20186;-84
2024/01/09 01:13:19;;;;;;;10.57;8.63;;;-2.00;99.90;;;;;;4954442;28;20184;-84
2024/01/09 01:15:45;;;;;;;11.30;8.27;;;-2.20;99.90;;;;;;4953467;28;20229;-84
2024/01/09 01:18:10;;;;;;;11.97;9.00;;;-2.40;99.70;;;;;;4957197;28;20189;-84
2024/01/09 01:20:36;;;;;;;13.43;8.63;;;-2.30;99.90;;;;;;4950933;28;20433;-84
2024/01/09 01:23:01;;;;;;;10.77;8.50;;;-2.00;99.90;;;;;;4941402;28;20372;-84
2024/01/09 01:25:27;;;;;;;13.70;9.77;;;-2.10;99.90;;;;;;4956541;28;20222;-84
2024/01/09 01:27:52;;;;;;;13.63;8.63;;;-2.30;99.60;;;;;;4957684;28;20232;-83
2024/01/09 01:30:18;;;;;;;11.03;8.07;;;-1.90;99.90;;;;;;4955683;28;20189;-84
2024/01/09 01:32:44;;;;;;;13.43;9.35;;;-2.20;99.90;;;;;;4957439;28;20187;-83
2024/01/09 01:35:09;;;;;;;12.20;9.13;;;-2.20;99.90;;;;;;4955102;28;20223;-84
2024/01/09 01:37:35;;;;;;;11.23;8.47;;;-2.20;99.90;;;;;;4956628;28;20192;-84
2024/01/09 01:40:01;;;;;;;12.00;8.53;;;-1.90;99.80;;;;;;4958718;28;20187;-84
2024/01/09 01:42:26;;;;;;;10.60;8.17;;;-2.30;99.20;;;;;;4971672;28;20245;-84
2024/01/09 01:44:52;;;;;;;11.17;8.27;;;-2.20;99.30;;;;;;4964646;28;20493;-84
2024/01/09 01:47:18;;;;;;;10.70;8.50;;;-2.30;99.40;;;;;;4949849;28;20210;-84
2024/01/09 01:49:44;;;;;;;11.75;8.65;;;-2.40;99.20;;;;;;4952040;28;20182;-84
2024/01/09 01:52:11;;;;;;;12.57;8.70;;;-2.60;99.30;;;;;;4954154;28;20221;-84
2024/01/09 01:54:39;;;;;;;13.75;8.63;;;-2.40;99.00;;;;;;4961842;28;20504;-84
2024/01/09 01:57:05;;;;;;;12.30;8.50;;;-2.50;99.20;;;;;;4965450;28;20189;-84
2024/01/09 01:59:33;;;;;;;12.45;8.13;;;-2.60;99.10;;;;;;4969267;28;20653;-84
2024/01/09 02:02:02;;;;;;;11.65;8.35;;;-2.30;99.40;;;;;;4950811;28;20198;-84
2024/01/09 02:04:28;;;;;;;12.18;9.25;;;-2.00;99.50;;;;;;4958108;28;20595;-83
2024/01/09 02:06:53;;;;;;;11.40;8.48;;;-2.40;99.20;;;;;;4982739;28;20218;-83
2024/01/09 02:09:19;;;;;;;12.70;8.10;;;-2.40;99.60;;;;;;4955786;28;20182;-83
2024/01/09 02:11:48;;;;;;;12.88;8.43;;;-2.60;99.30;;;;;;4954976;28;20206;-83
2024/01/09 02:14:14;;;;;;;16.85;9.95;;;-2.70;99.60;;;;;;4952845;28;20217;-83
2024/01/09 02:16:39;;;;;;;10.27;8.30;;;-2.40;99.30;;;;;;4953768;28;20269;-83
2024/01/09 02:19:05;;;;;;;13.03;8.57;;;-2.40;99.00;;;;;;4957808;28;20814;-83
2024/01/09 02:21:31;;;;;;;13.43;9.13;;;-2.60;99.00;;;;;;4957588;28;20443;-83
2024/01/09 02:23:56;;;;;;;14.60;9.77;;;-2.50;98.80;;;;;;4954526;28;20285;-83
2024/01/09 02:26:29;;;;;;;15.57;10.17;;;-2.70;98.80;;;;;;4956102;28;20222;-83
2024/01/09 02:29:00;;;;;;;11.38;8.05;;;-2.20;99.10;;;;;;4953181;28;20195;-82
2024/01/09 02:31:26;;;;;;;13.73;9.02;;;-2.80;98.90;;;;;;4958704;28;20640;-83
2024/01/09 02:33:51;;;;;;;10.50;8.20;;;-2.80;98.00;;;;;;4960625;28;20195;-83
2024/01/09 02:36:17;;;;;;;11.87;8.93;;;-2.60;98.50;;;;;;4960593;28;20761;-83
2024/01/09 02:38:44;;;;;;;13.93;9.30;;;-2.50;98.20;;;;;;4959064;28;20535;-83
2024/01/09 02:41:09;;;;;;;12.20;7.63;;;-2.50;98.90;;;;;;4960015;28;20220;-83
2024/01/09 02:43:35;;;;;;;15.07;9.20;;;-2.70;98.80;;;;;;4952815;28;20736;-83
2024/01/09 02:46:00;;;;;;;13.27;8.70;;;-3.00;98.90;;;;;;4959211;28;20210;-83
2024/01/09 02:48:26;;;;;;;12.33;8.03;;;-2.60;98.90;;;;;;4952853;28;20182;-83
2024/01/09 02:50:51;;;;;;;11.70;8.27;;;-2.90;99.00;;;;;;4959161;28;20196;-83
2024/01/09 02:53:17;;;;;;;13.17;9.77;;;-3.00;99.00;;;;;;4957947;28;20182;-83
2024/01/09 02:55:42;;;;;;;13.80;10.00;;;-2.80;99.20;;;;;;4953998;28;20655;-83
2024/01/09 02:58:08;;;;;;;12.70;9.30;;;-3.60;98.90;;;;;;4954964;28;20571;-83
2024/01/09 03:00:33;;;;;;;12.67;8.93;;;-3.10;98.80;;;;;;4956571;28;20571;-83
2024/01/09 03:02:59;;;;;;;12.27;8.20;;;-3.00;99.30;;;;;;4959727;28;20213;-83
2024/01/09 03:05:24;;;;;;;13.90;9.10;;;-2.80;99.30;;;;;;4956388;28;20258;-84
2024/01/09 03:07:50;;;;;;;11.45;7.72;;;-3.20;98.70;;;;;;4954253;28;20194;-83
2024/01/09 03:10:16;;;;;;;12.93;8.43;;;-3.20;98.30;;;;;;4956405;28;20599;-83
2024/01/09 03:12:41;;;;;;;13.83;9.33;;;-3.10;98.80;;;;;;4959732;28;20331;-83
2024/01/09 03:15:09;;;;;;;12.07;8.47;;;-3.00;98.70;;;;;;4954396;28;20552;-83
2024/01/09 03:17:34;;;;;;;14.05;7.85;;;-2.90;98.50;;;;;;4954910;28;20186;-83
2024/01/09 03:20:00;;;;;;;11.93;8.53;;;-3.20;98.80;;;;;;4966641;28;20175;-83
2024/01/09 03:22:26;;;;;;;13.00;8.97;;;-3.00;99.20;;;;;;4978233;28;20198;-83
2024/01/09 03:24:51;;;;;;;13.55;9.23;;;-2.90;98.60;;;;;;4973527;28;20189;-83
2024/01/09 03:27:17;;;;;;;12.20;8.33;;;-3.00;98.50;;;;;;4972822;28;20304;-83
2024/01/09 03:29:42;;;;;;;11.83;7.50;;;-3.20;98.50;;;;;;4952691;28;20189;-83
2024/01/09 03:32:09;;;;;;;14.03;9.47;;;-3.00;98.70;;;;;;4959313;28;20223;-83
2024/01/09 03:34:35;;;;;;;14.77;10.07;;;-3.40;98.70;;;;;;4977283;28;20221;-83
2024/01/09 03:37:00;;;;;;;15.63;9.23;;;-3.30;99.10;;;;;;4976744;28;20236;-83
2024/01/09 03:39:26;;;;;;;13.00;8.20;;;-3.20;99.10;;;;;;4976184;28;20258;-83
2024/01/09 03:41:52;;;;;;;8.80;6.78;;;-3.10;99.10;;;;;;4968049;28;20305;-83
2024/01/09 03:44:18;;;;;;;10.53;7.53;;;-3.20;98.70;;;;;;4963703;28;20479;-83
2024/01/09 03:46:43;;;;;;;14.60;8.03;;;-3.00;98.40;;;;;;4973045;28;20244;-83
2024/01/09 03:49:09;;;;;;;14.10;8.37;;;-3.30;98.20;;;;;;4990951;28;20197;-83
2024/01/09 03:51:35;;;;;;;11.73;8.63;;;-2.90;98.30;;;;;;4956577;28;20190;-83
2024/01/09 03:54:00;;;;;;;11.57;7.87;;;-2.60;98.70;;;;;;4952813;28;20976;-83
2024/01/09 03:56:26;;;;;;;13.17;9.63;;;-2.50;98.20;;;;;;4961852;28;20240;-83
2024/01/09 03:58:53;;;;;;;13.63;8.63;;;-3.10;97.90;;;;;;4953384;28;20202;-83
2024/01/09 04:01:18;;;;;;;13.02;7.88;;;-2.40;98.30;;;;;;4976465;28;20220;-83
2024/01/09 04:03:45;;;;;;;12.60;8.10;;;-2.80;98.20;;;;;;4972381;28;20179;-83
2024/01/09 04:06:11;;;;;;;11.98;7.88;;;-3.30;98.10;;;;;;4969910;28;20202;-83
2024/01/09 04:08:36;;;;;;;12.90;8.80;;;-2.90;98.00;;;;;;4961488;28;20229;-83
2024/01/09 04:11:06;;;;;;;12.87;9.20;;;-3.00;97.90;;;;;;4954815;28;20191;-83
2024/01/09 04:13:31;;;;;;;11.05;7.95;;;-3.10;98.00;;;;;;4960026;28;20206;-83
2024/01/09 04:15:57;;;;;;;13.37;8.33;;;-3.10;97.70;;;;;;4967216;28;20214;-84
2024/01/09 04:18:23;;;;;;;12.33;8.20;;;-2.90;97.70;;;;;;4971827;28;20740;-84
2024/01/09 04:20:48;;;;;;;11.37;8.10;;;-3.10;97.70;;;;;;4967572;28;21002;-83
2024/01/09 04:23:14;;;;;;;11.77;8.13;;;-2.90;97.90;;;;;;4961076;28;20247;-83
2024/01/09 04:25:39;;;;;;;10.80;8.20;;;-3.20;97.90;;;;;;4960305;28;20470;-84
2024/01/09 04:28:05;;;;;;;13.13;8.50;;;-3.30;98.00;;;;;;4957298;28;20205;-83
2024/01/09 04:30:30;;;;;;;15.80;8.70;;;-3.20;98.00;;;;;;4955728;28;20529;-84
2024/01/09 04:32:56;;;;;;;13.70;8.87;;;-3.20;98.00;;;;;;4957878;28;20261;-83
2024/01/09 04:35:21;;;;;;;11.73;8.20;;;-3.40;98.10;;;;;;4957674;28;20680;-83
2024/01/09 04:37:48;;;;;;;9.97;7.20;;;-3.00;98.10;;;;;;4955638;28;20186;-83
2024/01/09 04:40:14;;;;;;;12.88;7.47;;;-3.30;97.80;;;;;;4957003;28;20245;-83
2024/01/09 04:42:39;;;;;;;11.10;8.33;;;-3.20;97.60;;;;;;4954695;28;20183;-83
2024/01/09 04:45:05;;;;;;;10.20;7.53;;;-3.30;97.60;;;;;;4953736;29;20683;-83
2024/01/09 04:47:31;;;;;;;12.93;8.20;;;-3.40;97.50;;;;;;4975237;28;20181;-83
2024/01/09 04:49:56;;;;;;;12.40;9.07;;;-3.30;97.80;;;;;;4978797;28;20429;-82
2024/01/09 04:52:22;;;;;;;12.97;8.17;;;-2.80;97.70;;;;;;5004899;28;20181;-83
2024/01/09 04:54:47;;;;;;;10.40;7.23;;;-2.70;97.80;;;;;;4962299;28;20635;-83
2024/01/09 04:57:13;;;;;;;10.87;7.87;;;-3.20;97.50;;;;;;4959349;28;20187;-83
2024/01/09 04:59:41;;;;;;;12.13;8.13;;;-3.20;97.70;;;;;;4955046;28;20193;-83
2024/01/09 05:02:07;;;;;;;15.38;8.65;;;-3.20;97.70;;;;;;4958172;28;20275;-83
2024/01/09 05:04:32;;;;;;;10.30;8.10;;;-2.60;98.10;;;;;;4964947;28;20203;-83
2024/01/09 05:06:58;;;;;;;12.07;8.00;;;-2.50;98.00;;;;;;4947079;29;20449;-83
2024/01/09 05:09:24;;;;;;;12.30;8.60;;;-3.20;97.30;;;;;;4962895;28;20180;-83
2024/01/09 05:11:49;;;;;;;10.05;7.35;;;-3.30;97.30;;;;;;4991758;28;20190;-83
2024/01/09 05:14:15;;;;;;;9.63;6.93;;;-3.10;97.20;;;;;;4963879;28;20223;-83
2024/01/09 05:16:40;;;;;;;14.77;8.90;;;-3.10;97.40;;;;;;4962533;28;20216;-83
2024/01/09 05:19:06;;;;;;;10.20;7.60;;;-3.60;97.00;;;;;;4965406;28;20201;-83
2024/01/09 05:21:31;;;;;;;10.67;6.60;;;-3.10;97.20;;;;;;4960864;29;20191;-83
2024/01/09 05:23:57;;;;;;;9.53;7.30;;;-3.00;97.30;;;;;;4960460;29;20253;-84
2024/01/09 05:26:22;;;;;;;11.90;6.93;;;-2.60;97.90;;;;;;4962014;28;20277;-83
2024/01/09 05:28:48;;;;;;;15.23;8.60;;;-2.50;97.70;;;;;;4959382;28;20186;-83
2024/01/09 05:31:14;;;;;;;11.73;7.87;;;-3.00;97.20;;;;;;4962254;28;20194;-83
2024/01/09 05:33:40;;;;;;;14.17;8.33;;;;;;;;;;4973280;28;20181;-83
2024/01/09 05:36:06;;;;;;;11.43;7.18;;;-3.10;97.00;;;;;;4977807;28;20449;-83
2024/01/09 05:38:32;;;;;;;14.07;8.18;;;-2.80;98.00;;;;;;4976910;28;20197;-83
2024/01/09 05:40:58;;;;;;;11.73;7.72;;;-2.50;97.50;;;;;;4974938;28;20190;-83
2024/01/09 05:43:23;;;;;;;10.33;6.93;;;-3.00;97.40;;;;;;4965384;28;20178;-84
2024/01/09 05:45:49;;;;;;;12.43;8.30;;;-2.80;97.60;;;;;;4969083;28;20232;-84
2024/01/09 05:48:14;;;;;;;14.60;8.20;;;-2.80;97.30;;;;;;4975656;28;20206;-83
2024/01/09 05:50:40;;;;;;;13.03;7.67;;;-3.00;96.80;;;;;;4974268;28;20254;-83
2024/01/09 05:53:05;;;;;;;9.93;6.73;;;-3.00;97.00;;;;;;4976408;28;20186;-83
2024/01/09 05:55:31;;;;;;;16.33;8.23;;;-2.90;96.60;;;;;;4981138;28;20276;-83
2024/01/09 05:57:57;;;;;;;14.10;7.23;;;-2.90;96.90;;;;;;5006733;28;20217;-83
2024/01/09 06:00:22;;;;;;;11.02;7.35;;;-2.40;96.90;;;;;;4975674;28;20201;-83
2024/01/09 06:02:48;;;;;;;11.10;7.10;;;-2.80;96.50;;;;;;4978706;28;20203;-84
2024/01/09 06:05:15;;;;;;;14.17;8.57;;;-2.40;97.00;;;;;;4979872;28;20201;-84
2024/01/09 06:07:41;;;;;;;11.52;8.32;;;-2.70;96.70;;;;;;4976938;28;20302;-83
2024/01/09 06:10:06;;;;;;;12.80;7.57;;;-2.80;96.40;;;;;;4977291;28;20194;-83
2024/01/09 06:12:32;;;;;;;12.03;7.97;;;-3.00;96.60;;;;;;4973984;28;20186;-83
2024/01/09 06:14:57;;;;;;;10.63;7.57;;;-2.60;97.00;;;;;;4967557;28;20737;-83
2024/01/09 06:17:23;;;;;;;8.70;6.23;;;-2.40;96.70;;;;;;4992115;28;20186;-83
2024/01/09 06:19:49;;;;;;;9.43;6.90;;;-3.10;96.10;;;;;;4966205;29;20192;-83
2024/01/09 06:22:14;;;;;;;12.20;7.90;;;-2.40;97.00;;;;;;5009486;28;20178;-83
2024/01/09 06:24:40;;;;;;;14.43;8.20;;;-2.80;96.60;;;;;;4978891;28;20494;-83
2024/01/09 06:27:05;;;;;;;11.80;7.17;;;-2.70;96.80;;;;;;4976850;28;20251;-83
2024/01/09 06:29:31;;;;;;;12.23;8.07;;;-2.40;96.80;;;;;;4968114;28;20240;-83
2024/01/09 06:31:56;;;;;;;11.83;7.37;;;-3.50;95.80;;;;;;4961804;28;20252;-84
2024/01/09 06:34:22;;;;;;;12.33;7.00;;;-2.80;96.10;;;;;;4961169;28;20273;-85
2024/01/09 06:36:49;;;;;;;12.07;7.77;;;-2.50;96.10;;;;;;4962955;28;20202;-86
2024/01/09 06:39:15;;;;;;;14.13;7.28;;;-3.00;96.60;;;;;;4962294;28;20248;-82
2024/01/09 06:41:41;;;;;;;13.90;7.80;;;-2.90;96.30;;;;;;4962114;28;20229;-83
2024/01/09 06:44:07;;;;;;;11.45;7.63;;;-2.50;96.50;;;;;;4960199;28;20296;-82
2024/01/09 06:46:33;;;;;;;11.40;8.23;;;-3.00;96.90;;;;;;4962631;29;20277;-85
2024/01/09 06:48:58;;;;;;;13.50;8.20;;;-2.80;96.90;;;;;;4967887;28;20191;-86
2024/01/09 06:51:25;;;;;;;11.80;8.10;;;-2.90;96.90;;;;;;4971083;28;20217;-85
2024/01/09 06:53:51;;;;;;;17.98;9.13;;;-3.50;96.20;;;;;;4984139;28;20218;-85
2024/01/09 06:56:17;;;;;;;12.70;7.63;;;-3.00;96.80;;;;;;4986358;28;20250;-85
2024/01/09 06:58:45;;;;;;;9.90;7.53;;;-2.90;96.70;;;;;;4963202;28;20484;-86
2024/01/09 07:01:10;;;;;;;11.23;7.95;;;-3.00;96.80;;;;;;4968583;28;20189;-86
2024/01/09 07:03:36;;;;;;;13.23;7.67;;;-3.20;96.60;;;;;;4969279;28;20187;-86
2024/01/09 07:06:02;;;;;;;13.83;7.60;;;-2.80;97.10;;;;;;4967176;28;20545;-86
2024/01/09 07:08:28;;;;;;;11.05;7.85;;;-2.50;97.30;;;;;;4962934;28;20185;-86
2024/01/09 07:10:54;;;;;;;11.63;7.87;;;-3.10;97.10;;;;;;4966299;28;20353;-86
2024/01/09 07:13:20;;;;;;;12.95;8.27;;;-2.50;97.00;;;;;;4972007;28;20196;-86
2024/01/09 07:15:46;;;;;;;11.82;7.60;;;-2.80;97.30;;;;;;4960030;28;20552;-87
2024/01/09 07:18:11;;;;;;;13.40;8.60;;;-3.10;97.00;;;;;;4974247;28;20767;-86
2024/01/09 07:20:37;;;;;;;13.10;7.70;;;-2.70;97.00;;;;;;5002588;28;20189;-86
2024/01/09 07:23:03;;;;;;;11.13;8.10;;;-3.10;97.00;;;;;;4970041;28;20185;-86
2024/01/09 07:25:28;;;;;;;9.77;7.80;;;-2.50;97.30;;;;;;4966908;28;20315;-86
2024/01/09 07:27:54;;;;;;;12.60;7.87;;;-3.10;97.20;;;;;;4979395;28;20189;-86
2024/01/09 07:30:19;;;;;;;11.07;8.50;;;-3.20;96.90;;;;;;4971340;28;20186;-86
2024/01/09 07:32:45;;;;;;;13.30;7.90;;;-3.10;96.70;;;;;;4969295;28;20210;-86
2024/01/09 07:35:11;;;;;;;11.60;8.27;;;-3.00;96.60;;;;;;4952681;28;20218;-86
2024/01/09 07:37:36;;;;;;;11.20;8.10;;;-3.00;96.90;;;;;;4965570;28;20230;-86
2024/01/09 07:40:04;;;;;;;9.90;7.67;;;-3.10;96.80;;;;;;4967101;28;20640;-86
2024/01/09 07:42:30;;;;;;;13.13;8.05;;;-3.00;96.60;;;;;;4983361;28;20186;-86
2024/01/09 07:44:55;;;;;;;12.00;8.20;;;-3.20;96.60;;;;;;4977315;28;20233;-84
2024/01/09 07:47:21;;;;;;;12.90;9.07;;;-3.60;96.40;;;;;;4965064;28;20468;-85
2024/01/09 07:49:46;;;;;;;12.80;8.43;;;-3.00;96.80;;;;;;4964657;28;20213;-86
2024/01/09 07:52:12;;;;;;;12.20;7.80;;;-2.50;97.10;;;;;;4992843;28;20187;-87
2024/01/09 07:54:37;;;;;;;11.43;7.90;;;-3.00;96.20;;;;;;4967046;28;20206;-85
2024/01/09 07:57:03;;;;;;;11.93;7.27;;;-2.80;98.10;;;;;;4963181;28;20197;-85
2024/01/09 07:59:29;;;;;;;14.17;8.77;;;-2.90;97.20;;;;;;4968343;28;20449;-86
2024/01/09 08:01:55;;;;;;;14.37;8.47;;;-3.10;97.40;;;;;;4966273;28;20437;-88
2024/01/09 08:04:24;;;;;;;13.30;7.97;;;-3.20;97.30;;;;;;4970071;28;20228;-85
2024/01/09 08:06:50;;;;;;;9.75;7.32;;;-3.10;97.30;;;;;;4957709;28;20807;-84
2024/01/09 08:09:19;;;;;;;10.98;7.40;;;-2.60;97.10;;;;;;4959760;28;20259;-86
2024/01/09 08:11:46;;;;;;;13.25;7.90;;;-3.00;96.90;;;;;;4955318;28;20194;-88
2024/01/09 08:14:13;;;;;;;11.32;7.13;;;-2.50;97.00;;;;;;4958577;28;20203;-87
2024/01/09 08:16:40;;;;;;;12.05;7.95;;;-3.10;96.50;;;;;;4963480;28;20213;-88
2024/01/09 08:19:09;;;;;;;16.52;8.38;;;-3.10;96.10;;;;;;4961560;28;20244;-88
2024/01/09 08:21:35;;;;;;;13.60;8.68;;;-2.90;96.10;;;;;;4959031;28;20202;-87
2024/01/09 08:24:02;;;;;;;13.10;8.60;;;-2.80;96.70;;;;;;4961106;28;20218;-88
2024/01/09 08:26:28;;;;;;;11.55;7.47;;;-3.00;96.10;;;;;;4958708;28;20210;-87
2024/01/09 08:28:53;;;;;;;12.43;8.10;;;-3.10;96.10;;;;;;4961846;28;20190;-87
2024/01/09 08:31:19;;;;;;;12.47;7.80;;;-2.70;96.30;;;;;;4956865;28;20214;-86
2024/01/09 08:33:45;;;;;;;12.60;8.03;;;-2.40;96.00;;;;;;4941900;28;20201;-87
2024/01/09 08:36:11;;;;;;;13.67;8.60;;;-2.60;95.90;;;;;;4959911;28;20190;-84
2024/01/09 08:38:37;;;;;;;16.67;9.38;;;-2.20;95.80;;;;;;4966614;28;20184;-84
2024/01/09 08:41:04;;;;;;;12.40;7.83;;;-2.10;95.80;;;;;;4965372;28;20665;-83
2024/01/09 08:43:30;;;;;;;14.35;8.20;;;;;;;;;;4958169;28;20197;-83
2024/01/09 08:45:55;;;;;;;11.23;7.57;;;-2.20;94.40;;;;;;4966609;28;20284;-84
2024/01/09 08:48:21;;;;;;;14.30;8.70;;;-2.20;94.10;;;;;;4965509;28;20215;-85
2024/01/09 08:50:48;;;;;;;13.10;8.27;;;-2.70;94.30;;;;;;4963568;28;20196;-83
2024/01/09 08:53:13;;;;;;;13.55;8.32;;;-2.10;93.90;;;;;;4962857;28;20217;-85
2024/01/09 08:55:39;;;;;;;15.97;8.77;;;-1.70;94.00;;;;;;4962943;28;20209;-85
2024/01/09 08:58:05;;;;;;;14.00;9.13;;;-1.50;94.40;;;;;;4960535;28;20187;-86
2024/01/09 09:00:30;;;;;;;13.10;8.43;;;-1.30;93.90;;;;;;4961849;28;20444;-86
2024/01/09 09:02:56;;;;;;;13.70;8.20;;;-1.50;93.90;;;;;;4958651;28;20193;-88
2024/01/09 09:05:22;;;;;;;10.13;8.10;;;-1.10;93.00;;;;;;4963049;28;20217;-84
2024/01/09 09:07:48;;;;;;;12.93;8.82;;;-1.40;92.80;;;;;;4962487;28;20195;-85
2024/01/09 09:10:13;;;;;;;12.63;8.27;;;-1.50;92.90;;;;;;4959588;28;20182;-84
2024/01/09 09:12:39;;;;;;;14.97;9.53;;;-1.20;93.00;;;;;;4962995;28;20184;-85
2024/01/09 09:15:04;;;;;;;13.57;8.67;;;-1.40;93.20;;;;;;4959688;28;20211;-84
2024/01/09 09:17:33;;;;;;;10.97;8.27;;;-1.40;92.70;;;;;;4960041;28;20195;-86
2024/01/09 09:19:58;;;;;;;11.48;8.70;;;-1.50;92.60;;;;;;4970359;28;20193;-87
2024/01/09 09:22:25;;;;;;;11.63;8.37;;;-1.60;92.40;;;;;;4989559;28;20192;-87
2024/01/09 09:24:52;;;;;;;13.43;8.65;;;-1.20;92.00;;;;;;4967128;28;20300;-86
2024/01/09 09:27:18;;;;;;;15.55;9.05;;;-0.80;90.80;;;;;;4963387;28;20565;-85
2024/01/09 09:29:44;;;;;;;14.30;9.20;;;-0.80;90.80;;;;;;4954308;28;20267;-84
2024/01/09 09:32:09;;;;;;;13.90;9.00;;;-0.20;90.50;;;;;;4972965;28;20272;-84
2024/01/09 09:34:35;;;;;;;11.57;8.53;;;-0.30;89.30;;;;;;4970001;28;20204;-85
2024/01/09 09:37:00;;;;;;;15.37;9.50;;;0.10;88.10;;;;;;4959812;28;20614;-85
2024/01/09 09:39:26;;;;;;;12.17;9.10;;;0.70;87.60;;;;;;4959557;28;20315;-86
2024/01/09 09:41:59;;;;;;;14.07;9.05;;;1.90;85.20;;;;;;4962809;28;20204;-85
2024/01/09 09:44:25;;;;;;;15.60;9.80;;;2.90;80.70;;;;;;4962385;28;20199;-84
2024/01/09 09:46:52;;;;;;;13.48;9.73;;;3.50;75.70;;;;;;4958930;28;20264;-85
2024/01/09 09:49:22;;;;;;;13.20;10.00;;;3.50;72.60;;;;;;4954043;28;20195;-86
2024/01/09 09:51:50;;;;;;;15.55;9.88;;;3.90;70.90;;;;;;4959412;28;20179;-86
2024/01/09 09:54:16;;;;;;;12.35;9.05;;;4.10;68.30;;;;;;4959186;28;20685;-86
2024/01/09 09:56:44;;;;;;;14.48;9.95;;;4.90;66.90;;;;;;4957689;28;20200;-83
2024/01/09 09:59:11;;;;;;;13.88;9.88;;;4.90;64.50;;;;;;4954422;28;20184;-82
2024/01/09 10:01:37;;;;;;;15.15;10.75;;;5.30;63.70;;;;;;4971825;28;20260;-82
2024/01/09 10:04:26;;;;;;;14.65;10.23;;;5.10;62.70;;;;;;5005631;28;20209;-82
2024/01/09 10:06:55;;;;;;;14.63;10.85;;;5.30;63.10;;;;;;4956164;28;20209;-86
2024/01/09 10:09:27;;;;;;;14.18;9.90;;;4.50;62.50;;;;;;4957866;28;20194;-82
2024/01/09 10:11:53;;;;;;;14.30;10.20;;;4.00;64.00;;;;;;4957793;28;20241;-84
2024/01/09 10:14:19;;;;;;;12.82;10.48;;;4.30;65.30;;;;;;4956938;28;20204;-84
2024/01/09 10:16:53;;;;;;;13.63;10.63;;;3.30;64.30;;;;;;4962400;28;20688;-84
2024/01/09 10:19:23;;;;;;;17.30;10.80;;;4.40;65.30;;;;;;4990482;28;20199;-86
2024/01/09 10:21:49;;;;;;;12.25;9.00;;;3.60;66.20;;;;;;4958189;28;20380;-84
2024/01/09 10:24:15;;;;;;;16.52;10.57;;;3.00;66.50;;;;;;4955248;28;20208;-85
2024/01/09 10:26:42;;;;;;;14.48;9.55;;;3.10;68.00;;;;;;4954312;28;20219;-86
2024/01/09 10:29:11;;;;;;;12.02;9.90;;;3.70;67.20;;;;;;4951387;28;20198;-87
2024/01/09 10:31:40;;;;;;;12.38;10.00;;;3.50;65.30;;;;;;4935914;28;20184;-87
2024/01/09 10:34:06;;;;;;;12.60;9.68;;;4.40;65.80;;;;;;4950598;28;20206;-86
2024/01/09 10:36:32;;;;;;;14.23;9.47;;;4.10;63.30;;;;;;4970351;28;20201;-86
2024/01/09 10:39:19;;;;;;;15.27;9.90;;;3.80;63.70;;;;;;4976314;28;20438;-86
2024/01/09 10:41:46;;;;;;;14.45;9.95;;;4.10;63.20;;;;;;4955545;28;20192;-86
2024/01/09 10:44:14;;;;;;;12.85;9.65;;;3.50;61.60;;;;;;4955332;28;20209;-86
2024/01/09 10:46:43;;;;;;;12.93;8.90;;;4.20;62.10;;;;;;4959437;28;20219;-87
2024/01/09 10:49:12;;;;;;;12.80;9.10;;;5.10;61.90;;;;;;4953425;28;20191;-87
2024/01/09 10:51:38;;;;;;;12.25;9.40;;;5.30;59.20;;;;;;4951063;28;20256;-87
2024/01/09 10:54:06;;;;;;;12.63;8.98;;;5.10;58.80;;;;;;4957663;28;20205;-86
2024/01/09 10:56:33;;;;;;;11.60;9.43;;;5.00;59.50;;;;;;4946909;28;20196;-87
2024/01/09 10:59:00;;;;;;;13.80;9.52;;;5.30;59.10;;;;;;4951197;28;20287;-86
2024/01/09 11:01:26;;;;;;;14.82;10.25;;;5.50;58.50;;;;;;4952119;28;20279;-86
2024/01/09 11:03:52;;;;;;;12.82;9.48;;;5.60;57.00;;;;;;4957464;28;20184;-86
2024/01/09 11:06:18;;;;;;;15.97;10.00;;;5.90;58.10;;;;;;4954588;28;20213;-88
2024/01/09 11:08:50;;;;;;;16.55;9.32;;;6.10;58.30;;;;;;4952665;28;20182;-87
2024/01/09 11:11:20;;;;;;;13.18;9.48;;;4.90;57.70;;;;;;4958957;28;20192;-86
2024/01/09 11:13:51;;;;;;;13.10;9.45;;;4.90;58.50;;;;;;4955931;28;20183;-87
2024/01/09 11:16:19;;;;;;;13.65;9.52;;;4.50;57.90;;;;;;4948983;28;20203;-87
2024/01/09 11:18:46;;;;;;;14.90;9.23;;;4.30;58.50;;;;;;4945230;28;20215;-87
2024/01/09 11:21:12;;;;;;;13.50;9.68;;;4.10;58.50;;;;;;4951573;28;20274;-86
2024/01/09 11:23:43;;;;;;;11.10;9.07;;;4.00;59.50;;;;;;4958273;28;20183;-87
2024/01/09 11:26:12;;;;;;;13.50;9.07;;;3.60;59.50;;;;;;4956270;28;20487;-85
2024/01/09 11:28:41;;;;;;;13.18;9.18;;;3.30;59.10;;;;;;4942548;28;20595;-86
2024/01/09 11:31:07;;;;;;;10.82;8.73;;;4.20;59.50;;;;;;4968189;28;20188;-87
2024/01/09 11:33:33;;;;;;;12.13;8.20;;;4.20;58.70;;;;;;4976316;28;20184;-86
2024/01/09 11:36:06;;;;;;;13.57;8.70;;;4.00;59.40;;;;;;4977579;28;20196;-87
2024/01/09 11:38:32;;;;;;;12.45;9.00;;;4.00;59.20;;;;;;4957153;28;20215;-86
2024/01/09 11:41:09;;;;;;;10.98;8.90;;;4.20;59.40;;;;;;4949069;29;20275;-86
2024/01/09 11:44:00;;;;;;;11.65;8.65;;;4.50;59.60;;;;;;4962539;28;20191;-88
2024/01/09 11:46:27;;;;;;;11.40;9.20;;;3.90;58.90;;;;;;4958240;28;20230;-86
2024/01/09 11:48:53;;;;;;;10.18;8.38;;;4.20;59.20;;;;;;4965175;28;20180;-86
2024/01/09 11:51:20;;;;;;;11.67;8.97;;;4.00;59.10;;;;;;4974174;28;20206;-87
2024/01/09 11:53:46;;;;;;;11.90;8.55;;;4.00;59.00;;;;;;4979270;28;21489;-87
2024/01/09 11:56:13;;;;;;;12.70;8.70;;;4.40;59.70;;;;;;4977229;28;20183;-87
2024/01/09 11:58:39;;;;;;;12.52;9.40;;;3.70;58.90;;;;;;4973118;28;20265;-87
2024/01/09 12:01:06;;;;;;;11.48;9.25;;;3.20;59.20;;;;;;4975764;28;20213;-87
2024/01/09 12:03:33;;;;;;;11.75;8.30;;;2.90;59.60;;;;;;4978387;28;20202;-87
2024/01/09 12:06:01;;;;;;;11.30;9.05;;;2.70;61.50;;;;;;4957459;28;20217;-87
2024/01/09 12:08:28;;;;;;;12.55;9.63;;;2.70;61.90;;;;;;4975386;28;20254;-86
2024/01/09 12:10:54;;;;;;;14.88;9.00;;;2.50;61.60;;;;;;4967005;28;20209;-87
2024/01/09 12:13:21;;;;;;;11.60;8.97;;;2.60;61.40;;;;;;4956344;28;20201;-87
2024/01/09 12:15:46;;;;;;;15.35;8.98;;;2.40;61.10;;;;;;4954917;28;20492;-86
2024/01/09 12:18:12;;;;;;;12.67;9.23;;;2.80;61.80;;;;;;4958465;28;20194;-87
2024/01/09 12:20:38;;;;;;;9.43;7.30;;;3.00;61.60;;;;;;4953319;28;20194;-87
2024/01/09 12:23:05;;;;;;;12.27;8.48;;;2.90;62.00;;;;;;4940180;28;20796;-87
2024/01/09 12:25:31;;;;;;;14.43;8.55;;;3.00;62.80;;;;;;4954601;28;20224;-87
2024/01/09 12:27:58;;;;;;;10.65;7.97;;;3.50;62.20;;;;;;4971121;28;20240;-87
2024/01/09 12:30:24;;;;;;;10.93;8.02;;;2.90;60.20;;;;;;4974390;28;20186;-86
2024/01/09 12:32:50;;;;;;;10.20;8.40;;;3.00;61.60;;;;;;4975204;28;20209;-87
2024/01/09 12:35:16;;;;;;;10.53;7.90;;;3.40;61.10;;;;;;4975022;28;20552;-87